Time;durP1;ratioP1;P1;durP2;ratioP2;P2;SDS_P1;SDS_P2;PMS_P1;PMS_P2;Temp;Humidity;BMP_temperature;BMP_pressure;BME280_temperature;BME280_humidity;BME280_pressure;Samples;Min_cycle;Max_cycle;Signal;HPM_P1;HPM_P2
2021/07/29 00:00:23;;;;;;;9.60;8.23;;;18.50;99.90;;;;;;2056624;28;20086;-69
2021/07/29 00:01:23;;;;;;;8.75;7.85;;;18.50;99.90;;;;;;2056283;28;20070;-70
2021/07/29 00:02:27;;;;;;;9.50;8.50;;;18.50;99.90;;;;;;2055865;28;20034;-69
2021/07/29 00:03:28;;;;;;;9.25;8.32;;;18.50;99.90;;;;;;2056706;28;20031;-69
2021/07/29 00:04:31;;;;;;;9.55;7.88;;;18.50;99.90;;;;;;2056627;28;20114;-69
2021/07/29 00:05:33;;;;;;;9.73;8.70;;;18.50;99.90;;;;;;2055735;28;20116;-68
2021/07/29 00:06:33;;;;;;;9.88;8.15;;;18.50;99.90;;;;;;2056563;28;20023;-68
2021/07/29 00:07:34;;;;;;;10.07;8.27;;;18.40;99.90;;;;;;2055803;28;20138;-69
2021/07/29 00:08:35;;;;;;;8.98;8.07;;;18.40;99.90;;;;;;2055899;28;20034;-70
2021/07/29 00:09:36;;;;;;;8.95;8.05;;;18.40;99.90;;;;;;2056630;28;20023;-69
2021/07/29 00:10:36;;;;;;;8.80;7.72;;;18.40;99.90;;;;;;2056762;28;20376;-69
2021/07/29 00:11:37;;;;;;;8.57;7.70;;;18.40;99.90;;;;;;2056728;28;20081;-69
2021/07/29 00:12:38;;;;;;;9.05;8.15;;;18.40;99.90;;;;;;2056900;28;20676;-69
2021/07/29 00:13:38;;;;;;;10.38;8.32;;;18.40;99.90;;;;;;2056583;28;20054;-69
2021/07/29 00:14:46;;;;;;;10.07;8.25;;;18.40;99.90;;;;;;2055978;28;20597;-69
2021/07/29 00:15:49;;;;;;;9.80;8.80;;;18.40;99.90;;;;;;2056154;28;20031;-69
2021/07/29 00:16:52;;;;;;;9.65;8.50;;;18.40;99.90;;;;;;2056451;28;20026;-70
2021/07/29 00:19:07;;;;;;;9.27;8.27;;;18.40;99.90;;;;;;2056482;28;20078;-68
2021/07/29 00:20:08;;;;;;;10.93;9.07;;;18.30;99.90;;;;;;2056427;28;20037;-68
2021/07/29 00:21:12;;;;;;;9.82;8.82;;;18.30;99.90;;;;;;2055632;28;20057;-69
2021/07/29 00:22:12;;;;;;;11.52;8.68;;;18.30;99.90;;;;;;2056001;28;20033;-70
2021/07/29 00:23:13;;;;;;;10.07;8.98;;;18.30;99.90;;;;;;2056569;28;20027;-69
2021/07/29 00:24:13;;;;;;;10.07;8.95;;;18.30;99.90;;;;;;2056359;28;20042;-68
2021/07/29 00:25:15;;;;;;;12.25;8.80;;;18.30;99.90;;;;;;2055246;28;20479;-68
2021/07/29 00:26:16;;;;;;;10.05;9.05;;;18.30;99.90;;;;;;2055882;28;20039;-69
2021/07/29 00:27:17;;;;;;;11.13;9.02;;;18.20;99.90;;;;;;2056493;28;20027;-68
2021/07/29 00:28:17;;;;;;;9.85;8.85;;;18.30;99.90;;;;;;2056427;28;20142;-69
2021/07/29 00:29:18;;;;;;;9.77;8.77;;;18.20;99.90;;;;;;2056711;28;20063;-69
2021/07/29 00:30:20;;;;;;;11.23;8.80;;;18.30;99.90;;;;;;2056123;28;20034;-69
2021/07/29 00:31:32;;;;;;;10.10;8.95;;;18.20;99.90;;;;;;2056029;28;20034;-69
2021/07/29 00:32:33;;;;;;;12.20;8.95;;;18.20;99.90;;;;;;2056010;28;20050;-70
2021/07/29 00:33:33;;;;;;;10.10;8.95;;;18.20;99.90;;;;;;2056228;28;20021;-68
2021/07/29 00:34:34;;;;;;;11.55;9.32;;;18.30;99.90;;;;;;2056823;28;20037;-69
2021/07/29 00:35:35;;;;;;;10.35;8.90;;;18.30;99.90;;;;;;2055091;28;20027;-69
2021/07/29 00:36:36;;;;;;;9.73;8.73;;;18.30;99.90;;;;;;2056123;28;20166;-69
2021/07/29 00:37:36;;;;;;;10.77;8.95;;;18.30;99.90;;;;;;2056722;28;20030;-71
2021/07/29 00:38:37;;;;;;;10.00;8.90;;;18.30;99.90;;;;;;2056576;28;20236;-69
2021/07/29 00:39:37;;;;;;;11.43;8.85;;;18.30;99.90;;;;;;2056603;28;20067;-70
2021/07/29 00:40:38;;;;;;;10.80;8.90;;;18.40;99.90;;;;;;2056623;28;20109;-69
2021/07/29 00:41:39;;;;;;;9.80;8.80;;;18.40;99.90;;;;;;2055828;28;20035;-70
2021/07/29 00:42:40;;;;;;;9.77;8.77;;;18.40;99.90;;;;;;2055818;28;20379;-70
2021/07/29 00:43:41;;;;;;;9.35;8.40;;;18.40;99.90;;;;;;2056437;28;20041;-69
2021/07/29 00:44:41;;;;;;;10.05;8.80;;;18.50;99.90;;;;;;2056314;28;20031;-69
2021/07/29 00:45:44;;;;;;;9.48;8.45;;;18.50;99.90;;;;;;2055692;28;20027;-69
2021/07/29 00:46:45;;;;;;;9.27;8.15;;;18.50;99.90;;;;;;2055867;28;20018;-69
2021/07/29 00:47:46;;;;;;;8.98;8.07;;;18.60;99.90;;;;;;2055881;28;20445;-69
2021/07/29 00:48:47;;;;;;;9.55;8.55;;;18.60;99.90;;;;;;2055726;28;20435;-69
2021/07/29 00:49:48;;;;;;;10.02;8.60;;;18.60;99.90;;;;;;2055579;28;20023;-70
2021/07/29 00:50:49;;;;;;;9.07;7.95;;;18.60;99.90;;;;;;2055633;28;20085;-69
2021/07/29 00:51:50;;;;;;;9.13;8.18;;;18.70;99.90;;;;;;2056230;28;20059;-70
2021/07/29 00:52:51;;;;;;;8.82;7.93;;;18.70;99.90;;;;;;2056183;28;20022;-69
2021/07/29 00:53:52;;;;;;;8.90;8.00;;;18.70;99.90;;;;;;2056272;28;20101;-70
2021/07/29 00:54:53;;;;;;;9.15;7.80;;;18.70;99.90;;;;;;2054802;28;20031;-69
2021/07/29 00:55:55;;;;;;;8.80;7.80;;;18.70;99.90;;;;;;2055699;28;20023;-69
2021/07/29 00:56:57;;;;;;;8.65;7.75;;;18.70;99.90;;;;;;2056252;28;20034;-69
2021/07/29 00:57:58;;;;;;;8.55;7.75;;;18.70;99.90;;;;;;2056312;28;20044;-69
2021/07/29 00:58:59;;;;;;;9.40;7.53;;;18.70;99.90;;;;;;2056213;28;20035;-69
2021/07/29 01:00:00;;;;;;;8.40;7.50;;;18.70;99.90;;;;;;2056301;28;20030;-69
2021/07/29 01:01:01;;;;;;;8.63;7.78;;;18.70;99.90;;;;;;2055520;28;20062;-69
2021/07/29 01:02:02;;;;;;;8.45;7.55;;;18.70;99.90;;;;;;2055628;28;20038;-70
2021/07/29 01:03:03;;;;;;;9.30;7.47;;;18.80;99.90;;;;;;2056170;28;20497;-69
2021/07/29 01:04:04;;;;;;;7.97;7.18;;;18.80;99.90;;;;;;2055652;28;20039;-71
2021/07/29 01:05:06;;;;;;;8.73;7.82;;;18.80;99.90;;;;;;2054926;28;20052;-69
2021/07/29 01:06:07;;;;;;;8.25;7.25;;;18.80;99.90;;;;;;2056228;28;20077;-69
2021/07/29 01:07:07;;;;;;;9.02;7.25;;;18.80;99.90;;;;;;2055733;28;20039;-69
2021/07/29 01:08:08;;;;;;;8.50;7.50;;;18.80;99.90;;;;;;2055749;28;20101;-69
2021/07/29 01:09:10;;;;;;;8.35;7.30;;;18.80;99.90;;;;;;2056230;28;20046;-69
2021/07/29 01:10:10;;;;;;;8.20;7.40;;;18.80;99.90;;;;;;2056407;28;20030;-69
2021/07/29 01:11:11;;;;;;;8.20;7.40;;;18.80;99.90;;;;;;2056195;28;20026;-69
2021/07/29 01:12:12;;;;;;;7.85;7.05;;;18.80;99.90;;;;;;2056215;28;20162;-69
2021/07/29 01:13:12;;;;;;;7.75;6.88;;;18.80;99.90;;;;;;2056228;28;20439;-69
2021/07/29 01:14:13;;;;;;;7.85;7.05;;;18.80;99.90;;;;;;2055538;28;20031;-69
2021/07/29 01:15:14;;;;;;;7.85;6.50;;;18.80;99.90;;;;;;2054851;28;20749;-69
2021/07/29 01:16:15;;;;;;;9.02;7.40;;;18.80;99.90;;;;;;2055634;28;20038;-70
2021/07/29 01:17:15;;;;;;;8.15;6.60;;;18.80;99.90;;;;;;2056202;28;20084;-69
2021/07/29 01:18:16;;;;;;;8.00;7.20;;;18.80;99.90;;;;;;2056121;28;20038;-69
2021/07/29 01:19:20;;;;;;;7.82;7.03;;;18.80;99.90;;;;;;2056157;28;20027;-69
2021/07/29 01:20:22;;;;;;;8.45;6.78;;;18.80;99.90;;;;;;2056252;28;20434;-69
2021/07/29 01:21:25;;;;;;;8.43;7.00;;;18.80;99.90;;;;;;2055912;28;20031;-70
2021/07/29 01:22:37;;;;;;;7.78;6.97;;;18.80;99.90;;;;;;2056106;28;20107;-69
2021/07/29 01:23:37;;;;;;;9.13;7.20;;;18.80;99.90;;;;;;2056149;28;20034;-69
2021/07/29 01:24:38;;;;;;;8.63;7.00;;;18.70;99.90;;;;;;2047413;28;20030;-69
2021/07/29 01:25:38;;;;;;;7.90;7.10;;;18.70;99.90;;;;;;2046813;29;20112;-70
2021/07/29 01:26:39;;;;;;;7.63;6.93;;;18.70;99.90;;;;;;2056027;28;20049;-70
2021/07/29 01:27:40;;;;;;;8.50;7.10;;;18.70;99.90;;;;;;2056159;28;20034;-70
2021/07/29 01:28:40;;;;;;;8.40;6.97;;;18.70;99.90;;;;;;2056037;28;20030;-70
2021/07/29 01:29:41;;;;;;;7.40;6.70;;;18.70;99.90;;;;;;2055468;28;20557;-70
2021/07/29 01:30:41;;;;;;;8.73;6.75;;;18.70;99.90;;;;;;2055428;28;20968;-69
2021/07/29 01:31:42;;;;;;;7.30;6.60;;;18.70;99.90;;;;;;2055320;28;20041;-69
2021/07/29 01:32:43;;;;;;;7.90;6.78;;;18.60;99.90;;;;;;2055626;28;20058;-70
2021/07/29 01:33:43;;;;;;;7.35;6.65;;;18.60;99.90;;;;;;2055512;28;20070;-69
2021/07/29 01:34:44;;;;;;;7.72;6.90;;;18.60;99.90;;;;;;2055858;28;20029;-68
2021/07/29 01:35:44;;;;;;;8.15;6.80;;;18.60;99.90;;;;;;2054701;28;20453;-68
2021/07/29 01:36:45;;;;;;;7.68;6.90;;;18.60;99.90;;;;;;2055638;28;20379;-69
2021/07/29 01:37:46;;;;;;;7.78;6.97;;;18.50;99.90;;;;;;2056270;28;20038;-68
2021/07/29 01:38:47;;;;;;;7.70;6.90;;;18.50;99.90;;;;;;2056070;28;20031;-69
2021/07/29 01:39:47;;;;;;;7.85;6.65;;;18.40;99.90;;;;;;2056151;28;20636;-69
2021/07/29 01:40:48;;;;;;;7.80;7.00;;;18.40;99.90;;;;;;2055898;28;20038;-69
2021/07/29 01:41:48;;;;;;;7.38;6.68;;;18.40;99.90;;;;;;2055976;28;20038;-68
2021/07/29 01:42:49;;;;;;;7.30;6.60;;;18.40;99.90;;;;;;2055494;28;20114;-68
2021/07/29 01:43:49;;;;;;;7.47;6.72;;;18.40;99.90;;;;;;2055439;28;20081;-69
2021/07/29 01:44:50;;;;;;;7.80;6.72;;;18.30;99.90;;;;;;2055501;28;20047;-69
2021/07/29 01:45:51;;;;;;;8.15;6.72;;;18.30;99.90;;;;;;2055772;28;20080;-69
2021/07/29 01:46:51;;;;;;;7.75;6.97;;;18.20;99.90;;;;;;2056079;28;20037;-69
2021/07/29 01:47:52;;;;;;;8.93;6.88;;;18.30;99.90;;;;;;2056017;28;20540;-69
2021/07/29 01:48:52;;;;;;;7.60;6.72;;;18.20;99.90;;;;;;2056116;28;20033;-68
2021/07/29 01:49:53;;;;;;;8.45;7.20;;;18.20;99.90;;;;;;2055910;28;20027;-68
2021/07/29 01:50:54;;;;;;;8.77;7.35;;;18.20;99.90;;;;;;2055400;28;20018;-68
2021/07/29 01:51:55;;;;;;;7.93;7.13;;;18.20;99.90;;;;;;2055365;28;20666;-70
2021/07/29 01:52:57;;;;;;;7.30;6.43;;;18.20;99.90;;;;;;2056090;28;20031;-69
2021/07/29 01:53:58;;;;;;;7.55;6.50;;;18.20;99.90;;;;;;2056037;28;20035;-69
2021/07/29 01:54:59;;;;;;;8.65;6.88;;;18.10;99.90;;;;;;2055174;28;20037;-69
2021/07/29 01:56:00;;;;;;;7.90;7.10;;;18.10;99.90;;;;;;2056426;28;20119;-70
2021/07/29 01:57:02;;;;;;;7.30;6.60;;;18.10;99.90;;;;;;2056506;28;20771;-69
2021/07/29 01:58:02;;;;;;;7.65;6.78;;;18.10;99.90;;;;;;2056402;28;20073;-69
2021/07/29 01:59:06;;;;;;;7.60;6.80;;;18.00;99.90;;;;;;2056603;28;20026;-69
2021/07/29 02:00:07;;;;;;;8.90;7.00;;;18.00;99.90;;;;;;2056278;28;20035;-69
2021/07/29 02:01:20;;;;;;;7.45;6.75;;;18.00;99.90;;;;;;2056387;28;20034;-68
2021/07/29 02:02:21;;;;;;;7.60;6.80;;;18.00;99.90;;;;;;2056402;28;20027;-69
2021/07/29 02:03:24;;;;;;;8.68;6.60;;;17.90;99.90;;;;;;2056350;28;20081;-70
2021/07/29 02:04:24;;;;;;;7.50;6.75;;;17.90;99.90;;;;;;2056212;28;20120;-69
2021/07/29 02:05:25;;;;;;;7.00;6.30;;;17.90;99.90;;;;;;2055784;28;20027;-68
2021/07/29 02:06:26;;;;;;;7.28;6.57;;;17.90;99.90;;;;;;2056516;28;20038;-70
2021/07/29 02:07:26;;;;;;;7.68;6.90;;;17.90;99.90;;;;;;2056048;28;20395;-69
2021/07/29 02:08:27;;;;;;;8.35;7.10;;;17.90;99.90;;;;;;2055884;28;20502;-69
2021/07/29 02:09:28;;;;;;;7.40;6.65;;;17.90;99.90;;;;;;2055909;28;20466;-70
2021/07/29 02:10:29;;;;;;;7.32;6.38;;;17.90;99.90;;;;;;2055346;28;20079;-68
2021/07/29 02:11:31;;;;;;;7.72;7.00;;;17.90;99.90;;;;;;2055324;28;20033;-68
2021/07/29 02:12:33;;;;;;;7.85;6.78;;;17.90;99.90;;;;;;2055972;28;20061;-70
2021/07/29 02:13:34;;;;;;;7.25;6.53;;;17.90;99.90;;;;;;2056176;28;20067;-69
2021/07/29 02:14:34;;;;;;;7.50;6.72;;;17.90;99.90;;;;;;2055855;28;20023;-70
2021/07/29 02:15:35;;;;;;;7.55;6.70;;;17.90;99.90;;;;;;2055249;28;20026;-69
2021/07/29 02:16:36;;;;;;;7.55;6.70;;;17.90;99.90;;;;;;2056022;28;20089;-70
2021/07/29 02:17:36;;;;;;;7.65;6.85;;;17.90;99.90;;;;;;2056055;28;20026;-70
2021/07/29 02:18:37;;;;;;;7.40;6.60;;;17.90;99.90;;;;;;2055960;28;20027;-70
2021/07/29 02:19:38;;;;;;;7.70;6.90;;;17.90;99.90;;;;;;2057371;28;20374;-69
2021/07/29 02:20:38;;;;;;;7.50;6.80;;;17.90;99.90;;;;;;2057336;28;20081;-69
2021/07/29 02:21:39;;;;;;;7.38;6.68;;;17.90;99.90;;;;;;2056653;28;20034;-69
2021/07/29 02:22:41;;;;;;;7.97;7.03;;;17.90;99.90;;;;;;2056735;28;20031;-70
2021/07/29 02:23:41;;;;;;;9.02;6.97;;;17.90;99.90;;;;;;2048817;28;20054;-70
2021/07/29 02:24:42;;;;;;;7.57;6.78;;;17.90;99.90;;;;;;2048602;28;20039;-69
2021/07/29 02:25:43;;;;;;;8.15;7.10;;;17.80;99.90;;;;;;2055797;28;20046;-69
2021/07/29 02:26:44;;;;;;;8.27;6.93;;;17.90;99.90;;;;;;2057297;28;20035;-69
2021/07/29 02:27:44;;;;;;;8.50;7.07;;;17.90;99.90;;;;;;2057294;28;20077;-68
2021/07/29 02:28:45;;;;;;;8.68;7.00;;;17.90;99.90;;;;;;2057155;28;20034;-69
2021/07/29 02:29:46;;;;;;;9.57;7.55;;;17.80;99.90;;;;;;2057207;28;20031;-69
2021/07/29 02:30:46;;;;;;;7.82;6.88;;;17.80;99.90;;;;;;2056701;28;20426;-70
2021/07/29 02:31:47;;;;;;;9.27;7.13;;;17.80;99.90;;;;;;2056669;28;20540;-69
2021/07/29 02:32:47;;;;;;;7.85;7.05;;;17.80;99.90;;;;;;2057324;28;20478;-70
2021/07/29 02:33:48;;;;;;;8.18;7.20;;;17.80;99.90;;;;;;2057337;28;20772;-69
2021/07/29 02:34:48;;;;;;;7.70;6.90;;;17.80;99.90;;;;;;2057033;28;20027;-69
2021/07/29 02:35:50;;;;;;;7.93;7.07;;;17.70;99.90;;;;;;2055791;28;20638;-68
2021/07/29 02:36:50;;;;;;;9.00;7.63;;;17.80;99.90;;;;;;2056579;28;20487;-69
2021/07/29 02:37:51;;;;;;;9.23;7.60;;;17.70;99.90;;;;;;2056595;28;20050;-68
2021/07/29 02:38:51;;;;;;;8.52;7.15;;;17.70;99.90;;;;;;2056621;28;20450;-69
2021/07/29 02:39:52;;;;;;;8.82;7.30;;;17.70;99.90;;;;;;2057211;28;20042;-69
2021/07/29 02:40:53;;;;;;;9.25;7.22;;;17.70;99.90;;;;;;2057158;28;20034;-68
2021/07/29 02:41:53;;;;;;;8.68;7.38;;;17.70;99.90;;;;;;2057124;28;20394;-69
2021/07/29 02:42:54;;;;;;;8.80;7.55;;;17.70;99.90;;;;;;2057124;28;20030;-69
2021/07/29 02:43:54;;;;;;;8.55;7.65;;;17.70;99.90;;;;;;2057137;28;20023;-69
2021/07/29 02:44:55;;;;;;;8.80;7.53;;;17.60;99.90;;;;;;2056669;28;20478;-68
2021/07/29 02:45:55;;;;;;;10.32;7.90;;;17.60;99.90;;;;;;2056865;28;20402;-69
2021/07/29 02:46:56;;;;;;;8.80;7.53;;;17.60;99.90;;;;;;2057098;28;20023;-69
2021/07/29 02:47:56;;;;;;;9.05;8.00;;;17.60;99.90;;;;;;2056596;28;20066;-69
2021/07/29 02:48:57;;;;;;;9.63;7.55;;;17.60;99.90;;;;;;2056406;28;20027;-68
2021/07/29 02:49:58;;;;;;;8.75;7.75;;;17.60;99.90;;;;;;2057209;28;20033;-69
2021/07/29 02:50:58;;;;;;;10.35;8.38;;;17.60;99.90;;;;;;2057239;28;20027;-69
2021/07/29 02:51:59;;;;;;;10.40;8.00;;;17.60;99.90;;;;;;2056704;28;20030;-69
2021/07/29 02:52:59;;;;;;;9.98;7.75;;;17.50;99.90;;;;;;2056543;28;20046;-69
2021/07/29 02:54:00;;;;;;;8.80;7.63;;;17.50;99.90;;;;;;2057384;28;20035;-69
2021/07/29 02:55:00;;;;;;;10.05;8.02;;;17.50;99.90;;;;;;2056277;28;20035;-69
2021/07/29 02:56:03;;;;;;;10.60;7.63;;;17.50;99.90;;;;;;2057189;28;20030;-69
2021/07/29 02:57:04;;;;;;;9.65;8.20;;;17.50;99.90;;;;;;2057177;28;20388;-68
2021/07/29 02:58:04;;;;;;;9.93;8.30;;;17.50;99.90;;;;;;2056980;28;20114;-69
2021/07/29 02:59:05;;;;;;;9.00;7.88;;;17.40;99.90;;;;;;2057210;28;20093;-69
2021/07/29 03:00:06;;;;;;;8.68;7.78;;;17.40;99.90;;;;;;2057327;28;20038;-69
2021/07/29 03:01:06;;;;;;;8.43;7.28;;;17.40;99.90;;;;;;2056982;28;20129;-69
2021/07/29 03:02:07;;;;;;;8.55;7.57;;;17.40;99.90;;;;;;2057027;28;20034;-69
2021/07/29 03:03:08;;;;;;;9.20;7.53;;;17.40;99.90;;;;;;2057249;28;20591;-68
2021/07/29 03:04:08;;;;;;;8.40;7.60;;;17.40;99.90;;;;;;2056995;28;20461;-68
2021/07/29 03:05:09;;;;;;;7.97;7.15;;;17.40;99.90;;;;;;2056423;28;20034;-68
2021/07/29 03:06:10;;;;;;;8.00;6.78;;;17.40;99.90;;;;;;2056249;28;20038;-68
2021/07/29 03:07:11;;;;;;;7.95;7.07;;;17.40;99.90;;;;;;2056495;28;20199;-68
2021/07/29 03:08:12;;;;;;;9.43;7.47;;;17.40;99.90;;;;;;2057067;28;20139;-68
2021/07/29 03:09:13;;;;;;;7.22;6.47;;;17.40;99.90;;;;;;2057021;28;20042;-68
2021/07/29 03:10:13;;;;;;;7.53;6.82;;;17.30;99.90;;;;;;2056951;28;20050;-68
2021/07/29 03:11:14;;;;;;;7.80;7.00;;;17.30;99.90;;;;;;2056912;28;20719;-68
2021/07/29 03:12:14;;;;;;;9.57;6.68;;;17.30;99.90;;;;;;2056952;28;20041;-68
2021/07/29 03:13:15;;;;;;;8.15;7.03;;;17.30;99.90;;;;;;2056845;28;20022;-68
2021/07/29 03:14:19;;;;;;;7.00;6.30;;;17.30;99.90;;;;;;2056245;28;20584;-69
2021/07/29 03:15:19;;;;;;;7.90;7.10;;;17.30;99.90;;;;;;2055619;28;20031;-68
2021/07/29 03:16:20;;;;;;;7.53;6.72;;;17.30;99.90;;;;;;2056899;28;20089;-68
2021/07/29 03:17:21;;;;;;;7.82;6.85;;;17.30;99.90;;;;;;2056951;28;20039;-69
2021/07/29 03:18:22;;;;;;;7.18;6.47;;;17.30;99.90;;;;;;2056712;28;20062;-69
2021/07/29 03:19:22;;;;;;;6.95;6.25;;;17.30;99.90;;;;;;2056921;28;20041;-68
2021/07/29 03:20:23;;;;;;;7.57;6.75;;;17.30;99.90;;;;;;2056919;28;20081;-68
2021/07/29 03:21:24;;;;;;;8.48;6.40;;;17.30;99.90;;;;;;2056902;28;20047;-69
2021/07/29 03:22:24;;;;;;;7.05;6.30;;;17.30;99.90;;;;;;2056841;28;20027;-69
2021/07/29 03:23:26;;;;;;;7.72;6.68;;;17.30;99.90;;;;;;2056851;28;20026;-69
2021/07/29 03:24:27;;;;;;;7.80;6.47;;;17.30;99.90;;;;;;2056810;28;20031;-69
2021/07/29 03:25:27;;;;;;;8.02;7.13;;;17.30;99.90;;;;;;2056110;28;20035;-69
2021/07/29 03:26:28;;;;;;;7.25;6.55;;;17.30;99.90;;;;;;2056804;28;20498;-69
2021/07/29 03:27:28;;;;;;;7.63;6.82;;;17.40;99.90;;;;;;2056132;28;20114;-69
2021/07/29 03:28:29;;;;;;;7.45;6.63;;;17.30;99.90;;;;;;2056290;28;20105;-70
2021/07/29 03:29:30;;;;;;;7.47;6.75;;;17.40;99.90;;;;;;2056911;28;20751;-69
2021/07/29 03:30:31;;;;;;;7.32;6.35;;;17.40;99.90;;;;;;2056130;28;20517;-68
2021/07/29 03:31:31;;;;;;;8.40;6.97;;;17.40;99.90;;;;;;2056039;28;20085;-69
2021/07/29 03:32:32;;;;;;;7.72;6.90;;;17.40;99.90;;;;;;2056434;28;20074;-69
2021/07/29 03:33:33;;;;;;;7.20;6.50;;;17.40;99.90;;;;;;2056272;28;20022;-70
2021/07/29 03:34:33;;;;;;;8.15;6.55;;;17.40;99.90;;;;;;2056836;28;20477;-69
2021/07/29 03:35:34;;;;;;;8.60;7.15;;;17.40;99.90;;;;;;2055970;28;20018;-68
2021/07/29 03:36:34;;;;;;;8.68;7.00;;;17.50;99.90;;;;;;2056753;28;20035;-68
2021/07/29 03:37:35;;;;;;;9.15;6.57;;;17.50;99.90;;;;;;2056872;28;20490;-70
2021/07/29 03:38:36;;;;;;;10.88;7.03;;;17.50;99.90;;;;;;2056758;28;20031;-68
2021/07/29 03:39:36;;;;;;;9.07;6.95;;;17.50;99.90;;;;;;2056770;28;20026;-68
2021/07/29 03:40:38;;;;;;;9.63;6.80;;;17.50;99.90;;;;;;2056686;28;20137;-69
2021/07/29 03:41:39;;;;;;;9.25;7.07;;;17.50;99.90;;;;;;2056727;28;20077;-69
2021/07/29 03:42:40;;;;;;;8.45;7.07;;;17.50;99.90;;;;;;2056583;28;20022;-69
2021/07/29 03:43:40;;;;;;;7.68;6.88;;;17.50;99.90;;;;;;2056477;28;20672;-69
2021/07/29 03:44:41;;;;;;;8.43;7.00;;;17.50;99.90;;;;;;2056670;28;20035;-69
2021/07/29 03:45:43;;;;;;;7.63;6.93;;;17.50;99.90;;;;;;2056019;28;20476;-69
2021/07/29 03:46:44;;;;;;;9.55;6.57;;;17.50;99.90;;;;;;2055989;28;20109;-69
2021/07/29 03:47:44;;;;;;;8.32;6.82;;;17.50;99.90;;;;;;2056212;28;20038;-69
2021/07/29 03:48:45;;;;;;;8.40;7.00;;;17.50;99.90;;;;;;2056695;28;20402;-69
2021/07/29 03:49:45;;;;;;;8.35;6.40;;;17.50;99.90;;;;;;2056696;28;20110;-69
2021/07/29 03:50:47;;;;;;;8.70;6.82;;;17.50;99.90;;;;;;2056614;28;20035;-69
2021/07/29 03:51:47;;;;;;;8.60;6.75;;;17.50;99.90;;;;;;2056643;28;20031;-69
2021/07/29 03:52:48;;;;;;;7.32;6.32;;;17.50;99.90;;;;;;2056718;28;20695;-69
2021/07/29 03:53:49;;;;;;;8.10;6.57;;;17.50;99.90;;;;;;2056647;28;20102;-68
2021/07/29 03:54:52;;;;;;;8.25;6.60;;;17.50;99.90;;;;;;2056620;28;20054;-69
2021/07/29 03:55:53;;;;;;;7.63;6.38;;;17.50;99.90;;;;;;2055942;28;20035;-70
2021/07/29 03:56:53;;;;;;;7.30;6.40;;;17.60;99.90;;;;;;2056627;28;20110;-69
2021/07/29 03:57:54;;;;;;;8.57;6.43;;;17.60;99.90;;;;;;2055798;28;20122;-68
2021/07/29 03:58:54;;;;;;;7.40;6.13;;;17.60;99.90;;;;;;2056024;28;20490;-69
2021/07/29 03:59:56;;;;;;;8.13;6.45;;;17.60;99.90;;;;;;2055981;28;20431;-70
2021/07/29 04:00:56;;;;;;;8.30;6.80;;;17.60;99.90;;;;;;2056727;28;20038;-70
2021/07/29 04:01:57;;;;;;;9.50;6.53;;;17.60;99.90;;;;;;2055963;28;20031;-69
2021/07/29 04:02:59;;;;;;;9.15;6.80;;;17.60;99.90;;;;;;2055970;28;20034;-70
2021/07/29 04:04:00;;;;;;;7.53;6.45;;;17.70;99.90;;;;;;2056563;28;20033;-69
2021/07/29 04:05:01;;;;;;;6.97;6.05;;;17.70;99.90;;;;;;2056516;28;20490;-70
2021/07/29 04:06:01;;;;;;;9.27;6.80;;;17.70;99.90;;;;;;2056088;28;20174;-69
2021/07/29 04:07:03;;;;;;;8.35;6.43;;;17.70;99.90;;;;;;2055934;28;20089;-69
2021/07/29 04:08:04;;;;;;;7.05;5.90;;;17.70;99.90;;;;;;2055884;28;20021;-68
2021/07/29 04:09:05;;;;;;;7.15;5.90;;;17.80;99.90;;;;;;2056383;28;20031;-69
2021/07/29 04:10:06;;;;;;;7.45;6.25;;;17.80;99.90;;;;;;2056519;28;20029;-68
2021/07/29 04:11:06;;;;;;;8.50;6.18;;;17.80;99.90;;;;;;2047889;28;20023;-68
2021/07/29 04:12:07;;;;;;;8.13;5.88;;;17.90;99.90;;;;;;2047811;29;20447;-68
2021/07/29 04:13:08;;;;;;;6.85;6.15;;;17.90;99.90;;;;;;2056479;28;20039;-69
2021/07/29 04:14:08;;;;;;;8.85;6.40;;;17.90;99.90;;;;;;2056384;28;20125;-68
2021/07/29 04:15:09;;;;;;;8.13;6.07;;;18.00;99.90;;;;;;2055696;28;20034;-68
2021/07/29 04:16:11;;;;;;;8.38;6.13;;;18.00;99.90;;;;;;2056443;28;20046;-67
2021/07/29 04:17:12;;;;;;;7.88;5.90;;;18.00;99.90;;;;;;2056435;28;20033;-68
2021/07/29 04:18:12;;;;;;;6.35;5.63;;;18.00;99.90;;;;;;2056217;28;20026;-68
2021/07/29 04:19:13;;;;;;;6.80;5.78;;;18.10;99.90;;;;;;2056470;28;20043;-67
2021/07/29 04:20:14;;;;;;;7.03;6.03;;;18.20;99.90;;;;;;2056395;28;20068;-69
2021/07/29 04:21:15;;;;;;;7.32;5.63;;;18.40;99.90;;;;;;2056419;28;20041;-68
2021/07/29 04:22:16;;;;;;;7.53;5.72;;;18.60;99.90;;;;;;2056390;28;20050;-69
2021/07/29 04:23:17;;;;;;;8.50;5.97;;;18.80;99.90;;;;;;2056345;28;20027;-68
2021/07/29 04:24:17;;;;;;;7.90;5.63;;;19.10;99.90;;;;;;2056423;28;20031;-69
2021/07/29 04:25:18;;;;;;;7.75;5.60;;;19.40;98.90;;;;;;2055657;28;20039;-70
2021/07/29 04:26:19;;;;;;;8.43;5.70;;;19.80;97.70;;;;;;2056008;28;20030;-69
2021/07/29 04:27:19;;;;;;;8.32;5.60;;;20.10;96.00;;;;;;2056005;28;20030;-69
2021/07/29 04:28:20;;;;;;;6.45;5.47;;;20.30;94.50;;;;;;2055860;28;20110;-68
2021/07/29 04:29:20;;;;;;;5.60;5.10;;;20.60;93.80;;;;;;2056079;28;20102;-70
2021/07/29 04:30:21;;;;;;;5.40;4.88;;;20.90;93.00;;;;;;2055910;28;20041;-68
2021/07/29 04:31:22;;;;;;;6.47;5.50;;;21.10;92.00;;;;;;2055891;28;20053;-69
2021/07/29 04:32:22;;;;;;;7.13;5.20;;;21.30;90.70;;;;;;2047787;29;20086;-69
2021/07/29 04:33:23;;;;;;;7.10;5.30;;;21.50;89.90;;;;;;2055777;28;20106;-68
2021/07/29 04:34:23;;;;;;;5.88;5.05;;;21.70;88.30;;;;;;2056156;28;20378;-69
2021/07/29 04:35:24;;;;;;;10.75;5.38;;;22.00;87.10;;;;;;2055510;28;20027;-69
2021/07/29 04:36:25;;;;;;;7.15;5.20;;;22.10;84.50;;;;;;2056306;28;20057;-69
2021/07/29 04:37:25;;;;;;;5.97;4.80;;;22.10;82.30;;;;;;2056351;28;20027;-69
2021/07/29 04:38:26;;;;;;;6.70;4.90;;;22.10;82.10;;;;;;2055599;28;20413;-69
2021/07/29 04:39:27;;;;;;;5.47;4.90;;;22.20;82.20;;;;;;2055744;28;20027;-68
2021/07/29 04:40:28;;;;;;;5.85;4.82;;;22.40;81.80;;;;;;2056304;28;20030;-68
2021/07/29 04:41:29;;;;;;;6.18;5.20;;;22.50;81.50;;;;;;2056139;28;20475;-70
2021/07/29 04:42:29;;;;;;;8.52;5.15;;;22.20;78.70;;;;;;2055955;28;20034;-69
2021/07/29 04:43:30;;;;;;;6.78;5.38;;;21.90;79.70;;;;;;2056233;28;20038;-69
2021/07/29 04:44:31;;;;;;;5.90;5.00;;;21.70;81.70;;;;;;2056185;28;20439;-69
2021/07/29 04:45:31;;;;;;;6.13;5.00;;;21.50;83.20;;;;;;2055559;28;20033;-68
2021/07/29 04:46:32;;;;;;;7.18;4.80;;;21.30;84.70;;;;;;2056296;28;20083;-69
2021/07/29 04:47:32;;;;;;;6.63;5.40;;;21.10;86.20;;;;;;2056243;28;20031;-68
2021/07/29 04:48:33;;;;;;;5.93;5.10;;;21.10;87.60;;;;;;2056242;28;20060;-70
2021/07/29 04:49:34;;;;;;;5.80;5.05;;;21.10;87.80;;;;;;2056258;28;20441;-68
2021/07/29 04:50:35;;;;;;;8.30;5.03;;;21.20;87.30;;;;;;2056270;28;20033;-68
2021/07/29 04:51:37;;;;;;;5.65;4.68;;;21.40;85.80;;;;;;2056258;28;20364;-68
2021/07/29 04:52:37;;;;;;;5.40;4.90;;;21.60;84.60;;;;;;2056211;28;20031;-68
2021/07/29 04:53:38;;;;;;;6.60;4.88;;;21.90;83.00;;;;;;2056321;28;20927;-68
2021/07/29 04:54:41;;;;;;;6.25;4.95;;;22.00;80.50;;;;;;2056082;28;20094;-69
2021/07/29 04:55:41;;;;;;;6.38;4.70;;;22.20;79.50;;;;;;2055285;28;20027;-68
2021/07/29 04:56:42;;;;;;;5.40;4.78;;;22.30;79.00;;;;;;2056079;28;20394;-68
2021/07/29 04:57:43;;;;;;;5.50;4.28;;;22.60;77.90;;;;;;2056255;28;20477;-68
2021/07/29 04:58:43;;;;;;;5.50;4.90;;;22.90;76.90;;;;;;2056213;28;20105;-70
2021/07/29 04:59:44;;;;;;;8.23;6.20;;;23.10;75.70;;;;;;2056229;28;20050;-68
2021/07/29 05:00:44;;;;;;;10.88;5.60;;;23.20;73.80;;;;;;2056172;28;20034;-68
2021/07/29 05:01:45;;;;;;;6.57;5.25;;;23.30;73.50;;;;;;2056119;28;20065;-70
2021/07/29 05:02:45;;;;;;;7.63;5.32;;;23.50;73.70;;;;;;2056112;28;20030;-70
2021/07/29 05:03:46;;;;;;;6.38;4.90;;;23.80;71.30;;;;;;2056116;28;20031;-69
2021/07/29 05:04:47;;;;;;;5.50;4.15;;;23.80;70.30;;;;;;2055881;28;20041;-69
2021/07/29 05:05:47;;;;;;;16.52;14.30;;;24.00;70.30;;;;;;2055350;28;20037;-69
2021/07/29 05:06:48;;;;;;;6.47;5.40;;;24.30;69.40;;;;;;2056194;28;20034;-69
2021/07/29 05:07:52;;;;;;;6.15;4.82;;;24.40;67.60;;;;;;2056143;28;20069;-69
2021/07/29 05:08:52;;;;;;;5.95;4.53;;;24.60;67.20;;;;;;2056378;28;20081;-69
2021/07/29 05:09:53;;;;;;;7.15;4.30;;;24.60;65.90;;;;;;2055695;28;20101;-70
2021/07/29 05:10:54;;;;;;;5.05;4.00;;;24.20;65.90;;;;;;2047634;29;20031;-69
2021/07/29 05:11:54;;;;;;;5.95;4.10;;;24.30;66.70;;;;;;2055697;28;20537;-69
2021/07/29 05:12:55;;;;;;;6.45;4.35;;;24.40;66.10;;;;;;2056249;28;20026;-69
2021/07/29 05:13:56;;;;;;;6.18;4.18;;;24.30;66.20;;;;;;2056462;28;20022;-69
2021/07/29 05:14:57;;;;;;;4.63;3.60;;;24.30;66.10;;;;;;2056369;28;20538;-70
2021/07/29 05:15:59;;;;;;;4.13;3.40;;;23.80;67.80;;;;;;2054744;28;20402;-71
2021/07/29 05:17:04;;;;;;;5.55;3.90;;;23.60;68.90;;;;;;2055584;28;20074;-70
2021/07/29 05:18:05;;;;;;;6.55;3.80;;;23.30;69.80;;;;;;2056301;28;20410;-70